createdAt,value
2023-04-08T00:01:42.540Z,100481.88
2023-04-08T00:04:32.977Z,100465.19
2023-04-08T00:07:21.635Z,100489.19
2023-04-08T00:10:10.848Z,100483.44
2023-04-08T00:13:00.943Z,100495.19
2023-04-08T00:15:49.467Z,100496.84
2023-04-08T00:18:38.385Z,100502.66
2023-04-08T00:21:28.297Z,100496.84
2023-04-08T00:24:17.268Z,100508.88
2023-04-08T00:27:05.739Z,100503.22
2023-04-08T00:29:54.523Z,100499.06
2023-04-08T00:32:43.014Z,100510.09
2023-04-08T00:35:31.691Z,100513.94
2023-04-08T00:38:21.619Z,100509.97
2023-04-08T00:41:10.467Z,100506.03
2023-04-08T00:43:59.031Z,100504.63
2023-04-08T00:46:48.610Z,100497.34
2023-04-08T00:49:37.138Z,100503.34
2023-04-08T00:52:25.724Z,100503.72
2023-04-08T00:55:15.821Z,100498.75
2023-04-08T00:58:04.324Z,100508.06
2023-04-08T01:01:01.961Z,100509.72
2023-04-08T01:03:59.009Z,100509.09
2023-04-08T01:06:51.432Z,100503.66
2023-04-08T01:09:41.172Z,100498.75
2023-04-08T01:12:33.638Z,100493.16
2023-04-08T01:15:22.270Z,100501.00
2023-04-08T01:18:13.543Z,100502.19
2023-04-08T01:21:03.003Z,100503.84
2023-04-08T01:23:58.147Z,100496.19
2023-04-08T01:26:48.602Z,100509.84
2023-04-08T01:29:37.814Z,100502.19
2023-04-08T01:32:27.360Z,100503.25
2023-04-08T01:35:16.486Z,100501.56
2023-04-08T01:38:06.709Z,100503.03
2023-04-08T01:40:55.877Z,100505.22
2023-04-08T01:43:46.361Z,100501.00
2023-04-08T01:46:35.283Z,100499.34
2023-04-08T01:49:24.943Z,100495.22
2023-04-08T01:52:14.026Z,100496.69
2023-04-08T01:55:02.556Z,100502.59
2023-04-08T01:57:53.026Z,100495.13
2023-04-08T02:00:43.845Z,100501.25
2023-04-08T02:03:32.837Z,100499.50
2023-04-08T02:06:21.493Z,100507.91
2023-04-08T02:09:10.043Z,100499.88
2023-04-08T02:11:58.702Z,100504.38
2023-04-08T02:14:47.319Z,100512.41
2023-04-08T02:17:42.140Z,100503.09
2023-04-08T02:20:33.724Z,100464.84
2023-04-08T02:23:23.920Z,100499.50
2023-04-08T02:26:15.030Z,100503.66
2023-04-08T02:29:05.261Z,100504.28
2023-04-08T02:31:54.420Z,100490.00
2023-04-08T02:34:44.835Z,100500.44
2023-04-08T02:37:33.481Z,100496.63
2023-04-08T02:40:26.735Z,100509.22
2023-04-08T02:43:15.295Z,100506.53
2023-04-08T02:46:04.362Z,100491.88
2023-04-08T02:48:53.147Z,100496.38
2023-04-08T02:51:42.982Z,100473.25
2023-04-08T02:54:31.566Z,100498.78
2023-04-08T02:57:20.189Z,100508.50
2023-04-08T03:00:10.117Z,100502.94
2023-04-08T03:02:58.901Z,100502.00
2023-04-08T03:05:47.562Z,100511.34
2023-04-08T03:08:37.456Z,100500.84
2023-04-08T03:11:26.668Z,100499.81
2023-04-08T03:14:15.140Z,100491.31
2023-04-08T03:17:03.739Z,100502.38
2023-04-08T03:19:52.277Z,100509.25
2023-04-08T03:22:40.810Z,100500.56
2023-04-08T03:25:31.702Z,100512.72
2023-04-08T03:28:25.235Z,100507.38
2023-04-08T03:31:13.803Z,100514.59
2023-04-08T03:34:02.423Z,100512.91
2023-04-08T03:36:51.355Z,100513.94
2023-04-08T03:39:40.081Z,100517.28
2023-04-08T03:42:29.891Z,100523.44
2023-04-08T03:45:18.366Z,100510.41
2023-04-08T03:48:07.302Z,100476.69
2023-04-08T03:50:55.912Z,100514.97
2023-04-08T03:53:44.420Z,100517.28
2023-04-08T03:56:32.959Z,100520.13
2023-04-08T03:59:25.088Z,100522.13
2023-04-08T04:02:13.732Z,100528.13
2023-04-08T04:05:02.348Z,100521.41
2023-04-08T04:07:50.859Z,100523.44
2023-04-08T04:10:39.336Z,100525.28
2023-04-08T04:13:27.904Z,100520.03
2023-04-08T04:16:17.877Z,100525.75
2023-04-08T04:19:06.654Z,100514.88
2023-04-08T04:21:55.219Z,100525.50
2023-04-08T04:24:48.329Z,100524.84
2023-04-08T04:27:37.707Z,100521.31
2023-04-08T04:30:27.192Z,100520.88
2023-04-08T04:33:17.100Z,100515.53
2023-04-08T04:36:05.791Z,100531.41
2023-04-08T04:38:54.484Z,100523.38
2023-04-08T04:41:44.266Z,100532.03
2023-04-08T04:44:32.715Z,100531.84
2023-04-08T04:47:21.197Z,100537.00
2023-04-08T04:50:11.819Z,100543.88
2023-04-08T04:53:00.300Z,100532.03
2023-04-08T04:55:48.791Z,100539.88
2023-04-08T04:58:37.304Z,100540.25
2023-04-08T05:01:26.148Z,100536.56
2023-04-08T05:04:14.679Z,100547.28
2023-04-08T05:07:04.658Z,100546.78
2023-04-08T05:09:53.223Z,100554.56
2023-04-08T05:12:42.074Z,100546.25
2023-04-08T05:15:30.630Z,100553.06
2023-04-08T05:18:19.653Z,100560.28
2023-04-08T05:21:08.128Z,100561.09
2023-04-08T05:23:57.916Z,100554.44
2023-04-08T05:26:47.809Z,100573.28
2023-04-08T05:29:36.268Z,100568.38
2023-04-08T05:32:24.820Z,100569.41
2023-04-08T05:35:13.316Z,100566.19
2023-04-08T05:38:01.802Z,100572.34
2023-04-08T05:40:51.694Z,100568.69
2023-04-08T05:43:40.390Z,100575.69
2023-04-08T05:46:29.003Z,100574.84
2023-04-08T05:49:18.230Z,100585.19
2023-04-08T05:52:06.966Z,100580.66
2023-04-08T05:54:55.547Z,100586.03
2023-04-08T05:57:45.445Z,100581.88
2023-04-08T06:00:34.183Z,100591.00
2023-04-08T06:03:23.050Z,100591.84
2023-04-08T06:06:12.647Z,100587.22
2023-04-08T06:09:01.190Z,100591.38
2023-04-08T06:11:50.735Z,100598.84
2023-04-08T06:14:41.043Z,100595.53
2023-04-08T06:17:29.646Z,100600.97
2023-04-08T06:20:18.248Z,100599.78
2023-04-08T06:23:07.153Z,100606.59
2023-04-08T06:25:55.711Z,100609.50
2023-04-08T06:28:44.160Z,100616.50
2023-04-08T06:31:34.153Z,100618.16
2023-04-08T06:34:22.682Z,100617.59
2023-04-08T06:37:11.421Z,100608.09
2023-04-08T06:39:59.919Z,100618.06
2023-04-08T06:42:48.525Z,100620.91
2023-04-08T06:45:37.076Z,100622.38
2023-04-08T06:48:28.613Z,100628.03
2023-04-08T06:51:17.079Z,100624.22
2023-04-08T06:54:05.754Z,100619.97
2023-04-08T06:56:54.254Z,100627.16
2023-04-08T06:59:42.746Z,100629.19
2023-04-08T07:02:31.323Z,100636.28
2023-04-08T07:05:21.453Z,100637.28
2023-04-08T07:08:10.579Z,100636.06
2023-04-08T07:10:59.099Z,100639.00
2023-04-08T07:13:47.638Z,100640.38
2023-04-08T07:16:36.204Z,100635.84
2023-04-08T07:19:24.846Z,100640.81
2023-04-08T07:22:14.743Z,100644.31
2023-04-08T07:25:03.269Z,100649.78
2023-04-08T07:27:52.955Z,100645.88
2023-04-08T07:30:41.513Z,100659.94
2023-04-08T07:33:30.064Z,100638.91
2023-04-08T07:36:18.676Z,100648.38
2023-04-08T07:39:08.569Z,100645.91
2023-04-08T07:41:57.320Z,100651.19
2023-04-08T07:44:46.617Z,100646.47
2023-04-08T07:47:35.676Z,100655.88
2023-04-08T07:50:24.273Z,100655.75
2023-04-08T07:53:13.669Z,100657.41
2023-04-08T07:56:04.485Z,100663.44
2023-04-08T07:58:54.388Z,100667.88
2023-04-08T08:01:43.169Z,100655.88
2023-04-08T08:04:32.735Z,100667.03
2023-04-08T08:07:21.372Z,100667.81
2023-04-08T08:10:10.996Z,100675.28
2023-04-08T08:13:00.982Z,100676.91
2023-04-08T08:15:53.655Z,100687.06
2023-04-08T08:18:42.470Z,100682.91
2023-04-08T08:21:31.289Z,100683.59
2023-04-08T08:24:19.831Z,100685.28
2023-04-08T08:27:08.604Z,100650.81
2023-04-08T08:29:58.426Z,100689.03
2023-04-08T08:32:47.304Z,100691.00
2023-04-08T08:35:35.995Z,100698.72
2023-04-08T08:38:24.734Z,100690.88
2023-04-08T08:41:13.305Z,100702.69
2023-04-08T08:44:01.812Z,100706.03
2023-04-08T08:46:52.206Z,100705.63
2023-04-08T08:49:41.551Z,100701.03
2023-04-08T08:52:30.481Z,100708.28
2023-04-08T08:55:35.014Z,100707.88
2023-04-08T08:58:28.791Z,100713.69
2023-04-08T09:01:37.407Z,100702.91
2023-04-08T09:04:27.621Z,100690.44
2023-04-08T09:07:16.202Z,100713.56
2023-04-08T09:10:05.436Z,100721.50
2023-04-08T09:12:57.604Z,100681.72
2023-04-08T09:16:05.006Z,100709.66
2023-04-08T09:18:53.641Z,100705.56
2023-04-08T09:21:43.877Z,100717.34
2023-04-08T09:24:32.407Z,100708.50
2023-04-08T09:27:34.877Z,100591.66
2023-04-08T09:30:24.873Z,100709.72
2023-04-08T09:33:13.434Z,100707.59
2023-04-08T09:36:02.186Z,100715.94
2023-04-08T09:38:52.648Z,100713.88
2023-04-08T09:41:41.526Z,100714.50
2023-04-08T09:44:31.216Z,100662.66
2023-04-08T09:47:21.318Z,100709.75
2023-04-08T09:50:10.787Z,100711.03
2023-04-08T09:53:02.794Z,100717.00
2023-04-08T09:55:54.901Z,100718.66
2023-04-08T09:58:48.930Z,100695.38
2023-04-08T10:01:40.162Z,100708.59
2023-04-08T10:04:30.191Z,100694.34
2023-04-08T10:07:19.243Z,100720.25
2023-04-08T10:10:10.935Z,100724.84
2023-04-08T10:13:01.029Z,100726.50
2023-04-08T10:15:49.568Z,100726.72
2023-04-08T10:18:38.308Z,100725.66
2023-04-08T10:21:37.025Z,100723.28
2023-04-08T10:24:25.944Z,100722.72
2023-04-08T10:27:40.827Z,100739.13
2023-04-08T10:30:43.843Z,100730.72
2023-04-08T10:33:38.615Z,100732.81
2023-04-08T10:36:28.816Z,100713.53
2023-04-08T10:39:17.936Z,100677.44
2023-04-08T10:42:09.506Z,100722.19
2023-04-08T10:45:01.849Z,100727.34
2023-04-08T10:47:51.826Z,100691.28
2023-04-08T10:50:40.883Z,100721.31
2023-04-08T10:53:30.460Z,100715.13
2023-04-08T10:56:19.619Z,100717.00
2023-04-08T10:59:08.657Z,100727.34
2023-04-08T11:01:58.285Z,100713.84
2023-04-08T11:04:48.381Z,100720.47
2023-04-08T11:07:41.489Z,100704.34
2023-04-08T11:10:30.097Z,100716.97
2023-04-08T11:13:18.820Z,100710.75
2023-04-08T11:16:17.793Z,100715.31
2023-04-08T11:19:07.815Z,100710.78
2023-04-08T11:21:57.712Z,100717.84
2023-04-08T11:24:46.409Z,100713.47
2023-04-08T11:27:38.220Z,100716.78
2023-04-08T11:30:26.749Z,100715.78
2023-04-08T11:33:15.270Z,100717.44
2023-04-08T11:36:04.734Z,100713.50
2023-04-08T11:38:56.402Z,100719.50
2023-04-08T11:41:44.937Z,100716.19
2023-04-08T11:44:33.734Z,100725.09
2023-04-08T11:47:22.321Z,100734.44
2023-04-08T11:50:11.480Z,100713.91
2023-04-08T11:53:00.308Z,100714.31
2023-04-08T11:55:50.368Z,100686.75
2023-04-08T11:58:39.142Z,100711.22
2023-04-08T12:01:28.125Z,100719.72
2023-04-08T12:04:16.809Z,100709.13
2023-04-08T12:07:05.609Z,100691.53
2023-04-08T12:09:54.653Z,100723.63
2023-04-08T12:12:44.540Z,100685.50
2023-04-08T12:15:33.060Z,100713.03
2023-04-08T12:18:21.726Z,100715.09
2023-04-08T12:21:10.366Z,100708.66
2023-04-08T12:23:59.063Z,100720.31
2023-04-08T12:26:47.649Z,100713.69
2023-04-08T12:29:37.589Z,100704.56
2023-04-08T12:32:26.267Z,100718.00
2023-04-08T12:35:15.046Z,100723.44
2023-04-08T12:38:03.639Z,100718.84
2023-04-08T12:40:52.253Z,100720.94
2023-04-08T12:43:40.758Z,100723.84
2023-04-08T12:46:30.708Z,100725.06
2023-04-08T12:49:19.318Z,100724.69
2023-04-08T12:52:08.538Z,100722.19
2023-04-08T12:54:57.064Z,100721.16
2023-04-08T12:57:45.660Z,100726.75
2023-04-08T13:00:34.309Z,100723.88
2023-04-08T13:03:24.261Z,100720.97
2023-04-08T13:06:12.856Z,100715.13
2023-04-08T13:09:01.420Z,100717.34
2023-04-08T13:11:50.287Z,100727.94
2023-04-08T13:14:38.911Z,100716.16
2023-04-08T13:17:27.771Z,100717.41
2023-04-08T13:20:17.811Z,100720.75
2023-04-08T13:23:06.557Z,100715.97
2023-04-08T13:25:55.369Z,100703.94
2023-04-08T13:28:56.625Z,100720.91
2023-04-08T13:31:46.077Z,100719.91
2023-04-08T13:34:34.671Z,100716.41
2023-04-08T13:37:24.726Z,100712.25
2023-04-08T13:40:13.443Z,100717.22
2023-04-08T13:43:02.334Z,100718.84
2023-04-08T13:45:50.956Z,100722.78
2023-04-08T13:48:39.549Z,100722.63
2023-04-08T13:51:28.116Z,100713.91
2023-04-08T13:54:17.993Z,100718.25
2023-04-08T13:57:06.630Z,100706.63
2023-04-08T13:59:55.385Z,100708.69
2023-04-08T14:02:44.016Z,100709.28
2023-04-08T14:05:32.871Z,100705.97
2023-04-08T14:08:25.382Z,100711.50
2023-04-08T14:11:15.704Z,100712.69
2023-04-08T14:14:04.237Z,100708.78
2023-04-08T14:16:52.797Z,100710.88
2023-04-08T14:19:41.908Z,100707.44
2023-04-08T14:22:30.433Z,100668.72
2023-04-08T14:25:19.039Z,100697.09
2023-04-08T14:28:08.998Z,100703.69
2023-04-08T14:30:57.516Z,100703.47
2023-04-08T14:33:46.018Z,100702.59
2023-04-08T14:36:34.830Z,100688.03
2023-04-08T14:39:23.359Z,100699.63
2023-04-08T14:42:12.102Z,100700.72
2023-04-08T14:45:02.312Z,100704.31
2023-04-08T14:47:50.941Z,100706.22
2023-04-08T14:50:39.597Z,100697.00
2023-04-08T14:53:28.209Z,100681.38
2023-04-08T14:56:16.744Z,100702.13
2023-04-08T14:59:05.945Z,100685.53
2023-04-08T15:01:55.981Z,100696.97
2023-04-08T15:04:44.510Z,100693.47
2023-04-08T15:07:33.067Z,100695.75
2023-04-08T15:10:21.730Z,100700.72
2023-04-08T15:13:10.409Z,100696.38
2023-04-08T15:15:58.944Z,100700.53
2023-04-08T15:18:48.876Z,100704.72
2023-04-08T15:21:37.394Z,100708.88
2023-04-08T15:24:25.918Z,100714.06
2023-04-08T15:27:14.651Z,100711.19
2023-04-08T15:30:03.419Z,100656.53
2023-04-08T15:32:52.444Z,100709.31
2023-04-08T15:35:46.555Z,100709.13
2023-04-08T15:38:35.145Z,100706.63
2023-04-08T15:41:23.667Z,100714.72
2023-04-08T15:44:12.289Z,100705.19
2023-04-08T15:47:00.923Z,100718.88
2023-04-08T15:49:49.856Z,100714.75
2023-04-08T15:52:39.713Z,100711.84
2023-04-08T15:55:28.258Z,100713.06
2023-04-08T15:58:17.060Z,100712.88
2023-04-08T16:01:05.878Z,100715.59
2023-04-08T16:03:54.508Z,100713.91
2023-04-08T16:06:44.184Z,100720.97
2023-04-08T16:09:34.862Z,100706.66
2023-04-08T16:12:25.394Z,100722.19
2023-04-08T16:15:13.973Z,100721.38
2023-04-08T16:18:03.279Z,100724.47
2023-04-08T16:20:51.809Z,100718.25
2023-04-08T16:23:40.293Z,100726.31
2023-04-08T16:26:30.165Z,100721.97
2023-04-08T16:29:18.713Z,100730.91
2023-04-08T16:32:07.342Z,100730.09
2023-04-08T16:34:55.876Z,100729.66
2023-04-08T16:37:44.397Z,100738.34
2023-04-08T16:40:33.934Z,100728.19
2023-04-08T16:43:24.696Z,100734.63
2023-04-08T16:46:13.671Z,100733.16
2023-04-08T16:49:02.317Z,100744.56
2023-04-08T16:51:50.906Z,100743.31
2023-04-08T16:54:39.420Z,100748.72
2023-04-08T16:57:28.298Z,100683.59
2023-04-08T17:00:20.580Z,100760.13
2023-04-08T17:03:10.716Z,100758.44
2023-04-08T17:06:07.097Z,100749.94
2023-04-08T17:08:56.050Z,100752.22
2023-04-08T17:11:44.637Z,100761.97
2023-04-08T17:14:34.225Z,100763.63
2023-04-08T17:17:24.388Z,100767.16
2023-04-08T17:20:13.433Z,100777.06
2023-04-08T17:23:02.135Z,100769.41
2023-04-08T17:25:50.749Z,100770.84
2023-04-08T17:28:39.353Z,100782.00
2023-04-08T17:31:28.222Z,100778.19
2023-04-08T17:34:18.208Z,100777.13
2023-04-08T17:37:07.012Z,100785.34
2023-04-08T17:39:55.663Z,100780.75
2023-04-08T17:42:44.250Z,100779.69
2023-04-08T17:45:32.754Z,100783.59
2023-04-08T17:48:21.309Z,100782.53
2023-04-08T17:51:11.800Z,100781.53
2023-04-08T17:54:00.322Z,100792.75
2023-04-08T17:56:49.617Z,100798.13
2023-04-08T17:59:38.252Z,100781.94
2023-04-08T18:02:29.084Z,100798.91
2023-04-08T18:05:17.679Z,100811.66
2023-04-08T18:08:07.636Z,100807.69
2023-04-08T18:10:57.243Z,100801.47
2023-04-08T18:13:46.028Z,100801.34
2023-04-08T18:16:34.551Z,100803.44
2023-04-08T18:19:24.632Z,100794.66
2023-04-08T18:22:13.301Z,100797.72
2023-04-08T18:25:03.231Z,100807.69
2023-04-08T18:27:51.750Z,100811.16
2023-04-08T18:30:40.354Z,100820.31
2023-04-08T18:33:29.380Z,100820.88
2023-04-08T18:36:18.489Z,100821.88
2023-04-08T18:39:07.207Z,100829.50
2023-04-08T18:41:57.384Z,100833.50
2023-04-08T18:44:46.041Z,100832.28
2023-04-08T18:47:34.626Z,100834.13
2023-04-08T18:50:23.222Z,100729.81
2023-04-08T18:53:12.341Z,100831.44
2023-04-08T18:56:00.966Z,100842.88
2023-04-08T18:58:54.435Z,100850.72
2023-04-08T19:01:43.225Z,100848.34
2023-04-08T19:04:31.845Z,100853.59
2023-04-08T19:07:20.451Z,100822.84
2023-04-08T19:10:09.784Z,100863.97
2023-04-08T19:12:58.521Z,100860.28
2023-04-08T19:15:48.493Z,100876.25
2023-04-08T19:18:36.979Z,100878.88
2023-04-08T19:21:25.545Z,100882.13
2023-04-08T19:24:14.165Z,100881.22
2023-04-08T19:27:02.749Z,100877.44
2023-04-08T19:29:51.264Z,100876.59
2023-04-08T19:32:42.771Z,100888.00
2023-04-08T19:35:31.362Z,100884.16
2023-04-08T19:38:19.978Z,100877.88
2023-04-08T19:41:08.687Z,100889.78
2023-04-08T19:43:57.296Z,100886.38
2023-04-08T19:46:46.082Z,100884.63
2023-04-08T19:49:36.109Z,100884.72
2023-04-08T19:52:24.876Z,100886.13
2023-04-08T19:55:13.432Z,100891.56
2023-04-08T19:58:02.257Z,100894.28
2023-04-08T20:00:51.034Z,100887.25
2023-04-08T20:03:39.627Z,100891.78
2023-04-08T20:06:29.592Z,100886.38
2023-04-08T20:09:18.129Z,100881.09
2023-04-08T20:12:06.825Z,100884.81
2023-04-08T20:14:55.644Z,100883.16
2023-04-08T20:17:44.237Z,100883.53
2023-04-08T20:20:32.791Z,100881.59
2023-04-08T20:23:24.131Z,100884.81
2023-04-08T20:26:13.273Z,100893.69
2023-04-08T20:29:01.911Z,100888.72
2023-04-08T20:31:51.521Z,100883.97
2023-04-08T20:34:41.521Z,100885.38
2023-04-08T20:37:30.020Z,100877.97
2023-04-08T20:40:20.330Z,100873.72
2023-04-08T20:43:08.849Z,100869.91
2023-04-08T20:45:57.420Z,100833.31
2023-04-08T20:48:47.136Z,100874.91
2023-04-08T20:51:35.715Z,100876.78
2023-04-08T20:54:25.201Z,100877.97
2023-04-08T20:57:15.531Z,100875.09
2023-04-08T21:00:05.744Z,100879.84
2023-04-08T21:02:54.366Z,100878.16
2023-04-08T21:05:43.047Z,100888.72
2023-04-08T21:08:31.960Z,100880.22
2023-04-08T21:11:21.056Z,100876.06
2023-04-08T21:14:10.896Z,100890.09
2023-04-08T21:16:59.555Z,100886.97
2023-04-08T21:19:48.127Z,100844.34
2023-04-08T21:22:36.691Z,100879.88
2023-04-08T21:25:26.559Z,100874.78
2023-04-08T21:28:15.409Z,100874.41
2023-04-08T21:31:10.538Z,100857.09
2023-04-08T21:33:59.310Z,100879.50
2023-04-08T21:36:47.866Z,100879.13
2023-04-08T21:39:36.479Z,100877.47
2023-04-08T21:42:26.199Z,100880.31
2023-04-08T21:45:15.423Z,100877.81
2023-04-08T21:48:05.624Z,100874.97
2023-04-08T21:50:54.181Z,100881.59
2023-04-08T21:53:42.677Z,100875.31
2023-04-08T21:56:31.178Z,100873.66
2023-04-08T21:59:20.015Z,100879.75
2023-04-08T22:02:11.235Z,100878.66
2023-04-08T22:05:01.559Z,100869.22
2023-04-08T22:07:50.976Z,100886.91
2023-04-08T22:10:39.581Z,100880.88
2023-04-08T22:13:28.164Z,100878.19
2023-04-08T22:16:16.687Z,100882.75
2023-04-08T22:19:07.448Z,100883.94
2023-04-08T22:21:57.337Z,100883.94
2023-04-08T22:24:45.901Z,100880.63
2023-04-08T22:27:34.424Z,100880.81
2023-04-08T22:30:23.112Z,100872.38
2023-04-08T22:33:11.804Z,100869.22
2023-04-08T22:36:00.468Z,100876.63
2023-04-08T22:38:50.764Z,100870.63
2023-04-08T22:41:39.568Z,100803.75
2023-04-08T22:44:28.023Z,100872.38
2023-04-08T22:47:18.199Z,100867.66
2023-04-08T22:50:07.811Z,100870.16
2023-04-08T22:52:56.329Z,100836.69
2023-04-08T22:55:46.411Z,100870.81
2023-04-08T22:58:34.901Z,100869.53
2023-04-08T23:01:23.661Z,100813.25
2023-04-08T23:04:12.263Z,100872.94
2023-04-08T23:07:01.140Z,100873.94
2023-04-08T23:09:49.746Z,100868.94
2023-04-08T23:12:39.628Z,100879.47
2023-04-08T23:15:28.177Z,100873.31
2023-04-08T23:18:16.704Z,100873.50
2023-04-08T23:21:05.579Z,100873.94
2023-04-08T23:23:54.116Z,100881.06
2023-04-08T23:26:42.653Z,100876.78
2023-04-08T23:29:32.539Z,100872.16
2023-04-08T23:32:21.199Z,100880.50
2023-04-08T23:35:09.955Z,100866.16
2023-04-08T23:37:58.502Z,100852.72
2023-04-08T23:40:47.040Z,100868.63
2023-04-08T23:43:36.113Z,100871.38
2023-04-08T23:46:26.103Z,100872.94
2023-04-08T23:49:14.690Z,100872.09
2023-04-08T23:52:03.243Z,100868.31
2023-04-08T23:54:51.814Z,100873.50
2023-04-08T23:57:42.880Z,100872.09
